sensor_id;sensor_type;location;lat;lon;timestamp;temperature;humidity
27200;DHT22;14714;48.106;11.546;2023-03-20T00:00:41;9.20;99.90
27200;DHT22;14714;48.106;11.546;2023-03-20T00:03:10;9.20;99.90
27200;DHT22;14714;48.106;11.546;2023-03-20T00:05:37;9.20;99.90
27200;DHT22;14714;48.106;11.546;2023-03-20T00:08:04;9.20;99.90
27200;DHT22;14714;48.106;11.546;2023-03-20T00:10:33;9.20;99.90
27200;DHT22;14714;48.106;11.546;2023-03-20T00:13:01;9.10;99.90
27200;DHT22;14714;48.106;11.546;2023-03-20T00:15:32;9.20;99.90
27200;DHT22;14714;48.106;11.546;2023-03-20T00:18:01;9.10;99.90
27200;DHT22;14714;48.106;11.546;2023-03-20T00:20:27;9.10;99.90
27200;DHT22;14714;48.106;11.546;2023-03-20T00:22:57;9.10;99.90
27200;DHT22;14714;48.106;11.546;2023-03-20T00:25:23;9.10;99.90
27200;DHT22;14714;48.106;11.546;2023-03-20T00:27:51;9.10;99.90
27200;DHT22;14714;48.106;11.546;2023-03-20T00:30:19;9.10;99.90
27200;DHT22;14714;48.106;11.546;2023-03-20T00:32:47;9.10;99.90
27200;DHT22;14714;48.106;11.546;2023-03-20T00:35:24;9.10;99.90
27200;DHT22;14714;48.106;11.546;2023-03-20T00:37:51;9.10;99.90
27200;DHT22;14714;48.106;11.546;2023-03-20T00:40:18;9.10;99.90
27200;DHT22;14714;48.106;11.546;2023-03-20T00:42:46;9.10;99.90
27200;DHT22;14714;48.106;11.546;2023-03-20T00:45:15;9.10;99.90
27200;DHT22;14714;48.106;11.546;2023-03-20T00:47:42;9.10;99.90
27200;DHT22;14714;48.106;11.546;2023-03-20T00:50:13;9.10;99.90
27200;DHT22;14714;48.106;11.546;2023-03-20T00:52:40;9.10;99.90
27200;DHT22;14714;48.106;11.546;2023-03-20T00:55:07;9.10;99.90
27200;DHT22;14714;48.106;11.546;2023-03-20T01:02:37;9.10;99.90
27200;DHT22;14714;48.106;11.546;2023-03-20T01:05:04;9.10;99.90
27200;DHT22;14714;48.106;11.546;2023-03-20T01:07:31;9.00;99.90
27200;DHT22;14714;48.106;11.546;2023-03-20T01:09:58;9.10;99.90
27200;DHT22;14714;48.106;11.546;2023-03-20T01:12:24;9.10;99.90
27200;DHT22;14714;48.106;11.546;2023-03-20T01:14:52;9.00;99.90
27200;DHT22;14714;48.106;11.546;2023-03-20T01:17:20;9.10;99.90
27200;DHT22;14714;48.106;11.546;2023-03-20T01:19:48;9.10;99.90
27200;DHT22;14714;48.106;11.546;2023-03-20T01:22:14;9.10;99.90
27200;DHT22;14714;48.106;11.546;2023-03-20T01:24:43;9.10;99.90
27200;DHT22;14714;48.106;11.546;2023-03-20T01:27:11;9.00;99.90
27200;DHT22;14714;48.106;11.546;2023-03-20T01:29:38;9.00;99.90
27200;DHT22;14714;48.106;11.546;2023-03-20T01:32:08;9.00;99.90
27200;DHT22;14714;48.106;11.546;2023-03-20T01:34:36;9.00;99.90
27200;DHT22;14714;48.106;11.546;2023-03-20T01:37:05;9.00;99.90
27200;DHT22;14714;48.106;11.546;2023-03-20T01:39:35;9.00;99.90
27200;DHT22;14714;48.106;11.546;2023-03-20T01:42:02;9.00;99.90
27200;DHT22;14714;48.106;11.546;2023-03-20T01:44:31;8.90;99.90
27200;DHT22;14714;48.106;11.546;2023-03-20T01:46:59;9.00;99.90
27200;DHT22;14714;48.106;11.546;2023-03-20T01:51:54;8.90;99.90
27200;DHT22;14714;48.106;11.546;2023-03-20T01:54:42;8.90;99.90
27200;DHT22;14714;48.106;11.546;2023-03-20T01:57:19;9.00;99.90
27200;DHT22;14714;48.106;11.546;2023-03-20T02:02:16;9.00;99.90
27200;DHT22;14714;48.106;11.546;2023-03-20T02:04:45;8.90;99.90
27200;DHT22;14714;48.106;11.546;2023-03-20T02:07:14;8.90;99.90
27200;DHT22;14714;48.106;11.546;2023-03-20T02:09:42;9.00;99.90
27200;DHT22;14714;48.106;11.546;2023-03-20T02:12:09;9.00;99.90
27200;DHT22;14714;48.106;11.546;2023-03-20T02:14:36;9.00;99.90
27200;DHT22;14714;48.106;11.546;2023-03-20T02:17:03;9.00;99.90
27200;DHT22;14714;48.106;11.546;2023-03-20T02:19:49;9.00;99.90
27200;DHT22;14714;48.106;11.546;2023-03-20T02:51:32;9.00;99.90
27200;DHT22;14714;48.106;11.546;2023-03-20T02:56:32;8.90;99.90
27200;DHT22;14714;48.106;11.546;2023-03-20T02:59:05;9.00;99.90
27200;DHT22;14714;48.106;11.546;2023-03-20T03:01:35;8.90;99.90
27200;DHT22;14714;48.106;11.546;2023-03-20T03:04:10;8.90;99.90
27200;DHT22;14714;48.106;11.546;2023-03-20T03:06:38;9.00;99.90
27200;DHT22;14714;48.106;11.546;2023-03-20T03:09:17;9.00;99.90
27200;DHT22;14714;48.106;11.546;2023-03-20T03:11:49;9.00;99.90
27200;DHT22;14714;48.106;11.546;2023-03-20T03:17:14;9.00;99.90
27200;DHT22;14714;48.106;11.546;2023-03-20T03:19:46;8.90;99.90
27200;DHT22;14714;48.106;11.546;2023-03-20T03:22:14;8.90;99.90
27200;DHT22;14714;48.106;11.546;2023-03-20T03:24:42;8.90;99.90
27200;DHT22;14714;48.106;11.546;2023-03-20T03:27:19;8.90;99.90
27200;DHT22;14714;48.106;11.546;2023-03-20T03:29:52;8.90;99.90
27200;DHT22;14714;48.106;11.546;2023-03-20T03:32:29;8.90;99.90
27200;DHT22;14714;48.106;11.546;2023-03-20T03:34:57;8.90;99.90
27200;DHT22;14714;48.106;11.546;2023-03-20T03:40:38;8.80;99.90
27200;DHT22;14714;48.106;11.546;2023-03-20T03:45:15;8.80;99.90
27200;DHT22;14714;48.106;11.546;2023-03-20T03:52:37;8.80;99.90
27200;DHT22;14714;48.106;11.546;2023-03-20T03:55:06;8.90;99.90
27200;DHT22;14714;48.106;11.546;2023-03-20T03:57:35;8.90;99.90
27200;DHT22;14714;48.106;11.546;2023-03-20T04:00:04;8.90;99.90
27200;DHT22;14714;48.106;11.546;2023-03-20T04:02:32;8.90;99.90
27200;DHT22;14714;48.106;11.546;2023-03-20T04:04:59;8.90;99.90
27200;DHT22;14714;48.106;11.546;2023-03-20T04:07:27;8.90;99.90
27200;DHT22;14714;48.106;11.546;2023-03-20T04:09:54;8.90;99.90
27200;DHT22;14714;48.106;11.546;2023-03-20T04:14:54;8.80;99.90
27200;DHT22;14714;48.106;11.546;2023-03-20T04:17:21;8.80;99.90
27200;DHT22;14714;48.106;11.546;2023-03-20T04:19:48;8.80;99.90
27200;DHT22;14714;48.106;11.546;2023-03-20T04:22:14;8.80;99.90
27200;DHT22;14714;48.106;11.546;2023-03-20T04:24:41;8.80;99.90
27200;DHT22;14714;48.106;11.546;2023-03-20T04:27:07;8.80;99.90
27200;DHT22;14714;48.106;11.546;2023-03-20T04:29:34;8.80;99.90
27200;DHT22;14714;48.106;11.546;2023-03-20T04:32:04;8.80;99.90
27200;DHT22;14714;48.106;11.546;2023-03-20T04:34:31;8.90;99.90
27200;DHT22;14714;48.106;11.546;2023-03-20T04:36:58;8.80;99.90
27200;DHT22;14714;48.106;11.546;2023-03-20T04:39:26;8.80;99.90
27200;DHT22;14714;48.106;11.546;2023-03-20T04:41:53;8.80;99.90
27200;DHT22;14714;48.106;11.546;2023-03-20T04:44:19;8.80;99.90
27200;DHT22;14714;48.106;11.546;2023-03-20T04:46:46;8.80;99.90
27200;DHT22;14714;48.106;11.546;2023-03-20T04:49:13;8.80;99.90
27200;DHT22;14714;48.106;11.546;2023-03-20T04:51:39;8.80;99.90
27200;DHT22;14714;48.106;11.546;2023-03-20T04:54:06;8.80;99.90
27200;DHT22;14714;48.106;11.546;2023-03-20T04:56:33;8.80;99.90
27200;DHT22;14714;48.106;11.546;2023-03-20T04:58:59;8.70;99.90
27200;DHT22;14714;48.106;11.546;2023-03-20T05:01:26;8.70;99.90
27200;DHT22;14714;48.106;11.546;2023-03-20T05:03:53;8.70;99.90
27200;DHT22;14714;48.106;11.546;2023-03-20T05:06:26;8.70;99.90
27200;DHT22;14714;48.106;11.546;2023-03-20T05:08:53;8.70;99.90
27200;DHT22;14714;48.106;11.546;2023-03-20T05:11:20;8.70;99.90
27200;DHT22;14714;48.106;11.546;2023-03-20T05:13:46;8.70;99.90
27200;DHT22;14714;48.106;11.546;2023-03-20T05:16:13;8.70;99.90
27200;DHT22;14714;48.106;11.546;2023-03-20T05:18:40;8.60;99.90
27200;DHT22;14714;48.106;11.546;2023-03-20T05:21:06;8.60;99.90
27200;DHT22;14714;48.106;11.546;2023-03-20T05:23:33;8.60;99.90
27200;DHT22;14714;48.106;11.546;2023-03-20T05:26:01;8.60;99.90
27200;DHT22;14714;48.106;11.546;2023-03-20T05:28:27;8.60;99.90
27200;DHT22;14714;48.106;11.546;2023-03-20T05:30:54;8.50;99.90
27200;DHT22;14714;48.106;11.546;2023-03-20T05:33:21;8.50;99.90
27200;DHT22;14714;48.106;11.546;2023-03-20T05:35:48;8.50;99.90
27200;DHT22;14714;48.106;11.546;2023-03-20T05:38:15;8.50;99.90
27200;DHT22;14714;48.106;11.546;2023-03-20T05:40:41;8.50;99.90
27200;DHT22;14714;48.106;11.546;2023-03-20T05:43:08;8.50;99.90
27200;DHT22;14714;48.106;11.546;2023-03-20T05:45:35;8.50;99.90
27200;DHT22;14714;48.106;11.546;2023-03-20T05:48:02;8.50;99.90
27200;DHT22;14714;48.106;11.546;2023-03-20T05:50:29;8.50;99.90
27200;DHT22;14714;48.106;11.546;2023-03-20T05:52:55;8.50;99.90
27200;DHT22;14714;48.106;11.546;2023-03-20T05:55:22;8.50;99.90
27200;DHT22;14714;48.106;11.546;2023-03-20T05:57:48;8.60;99.90
27200;DHT22;14714;48.106;11.546;2023-03-20T06:00:16;8.60;99.90
27200;DHT22;14714;48.106;11.546;2023-03-20T06:02:42;8.60;99.90
27200;DHT22;14714;48.106;11.546;2023-03-20T06:05:12;8.60;99.90
27200;DHT22;14714;48.106;11.546;2023-03-20T06:07:39;8.60;99.90
27200;DHT22;14714;48.106;11.546;2023-03-20T06:10:06;8.60;99.90
27200;DHT22;14714;48.106;11.546;2023-03-20T06:12:32;8.60;99.90
27200;DHT22;14714;48.106;11.546;2023-03-20T06:14:59;8.60;99.90
27200;DHT22;14714;48.106;11.546;2023-03-20T06:17:26;8.70;99.90
27200;DHT22;14714;48.106;11.546;2023-03-20T06:19:53;8.70;99.90
27200;DHT22;14714;48.106;11.546;2023-03-20T06:22:19;8.70;99.90
27200;DHT22;14714;48.106;11.546;2023-03-20T06:24:46;8.70;99.90
27200;DHT22;14714;48.106;11.546;2023-03-20T06:27:14;8.70;99.90
27200;DHT22;14714;48.106;11.546;2023-03-20T06:29:41;8.70;99.90
27200;DHT22;14714;48.106;11.546;2023-03-20T06:32:08;8.70;99.90
27200;DHT22;14714;48.106;11.546;2023-03-20T06:34:36;8.70;99.90
27200;DHT22;14714;48.106;11.546;2023-03-20T06:37:02;8.70;99.90
27200;DHT22;14714;48.106;11.546;2023-03-20T06:39:29;8.70;99.90
27200;DHT22;14714;48.106;11.546;2023-03-20T06:41:56;8.70;99.90
27200;DHT22;14714;48.106;11.546;2023-03-20T06:44:23;8.80;99.90
27200;DHT22;14714;48.106;11.546;2023-03-20T06:46:50;8.80;99.90
27200;DHT22;14714;48.106;11.546;2023-03-20T06:49:17;8.80;99.90
27200;DHT22;14714;48.106;11.546;2023-03-20T06:51:44;8.80;99.90
27200;DHT22;14714;48.106;11.546;2023-03-20T06:54:13;8.90;99.90
27200;DHT22;14714;48.106;11.546;2023-03-20T06:56:40;9.00;99.90
27200;DHT22;14714;48.106;11.546;2023-03-20T06:59:07;9.00;99.90
27200;DHT22;14714;48.106;11.546;2023-03-20T07:01:34;9.00;99.90
27200;DHT22;14714;48.106;11.546;2023-03-20T07:04:02;9.10;99.90
27200;DHT22;14714;48.106;11.546;2023-03-20T07:06:28;9.20;99.90
27200;DHT22;14714;48.106;11.546;2023-03-20T07:08:55;9.30;99.90
27200;DHT22;14714;48.106;11.546;2023-03-20T07:11:22;9.40;99.90
27200;DHT22;14714;48.106;11.546;2023-03-20T07:13:49;9.50;99.90
27200;DHT22;14714;48.106;11.546;2023-03-20T07:16:15;9.70;99.90
27200;DHT22;14714;48.106;11.546;2023-03-20T07:18:42;9.80;99.90
27200;DHT22;14714;48.106;11.546;2023-03-20T07:21:09;9.90;99.90
27200;DHT22;14714;48.106;11.546;2023-03-20T07:23:39;10.10;99.90
27200;DHT22;14714;48.106;11.546;2023-03-20T07:26:06;10.30;99.90
27200;DHT22;14714;48.106;11.546;2023-03-20T07:28:32;10.70;99.90
27200;DHT22;14714;48.106;11.546;2023-03-20T07:30:59;11.20;99.90
27200;DHT22;14714;48.106;11.546;2023-03-20T07:33:26;11.90;99.90
27200;DHT22;14714;48.106;11.546;2023-03-20T07:35:53;12.50;99.90
27200;DHT22;14714;48.106;11.546;2023-03-20T07:38:20;12.90;99.90
27200;DHT22;14714;48.106;11.546;2023-03-20T07:40:47;13.20;99.90
27200;DHT22;14714;48.106;11.546;2023-03-20T07:43:14;13.50;99.90
27200;DHT22;14714;48.106;11.546;2023-03-20T07:45:41;13.60;99.90
27200;DHT22;14714;48.106;11.546;2023-03-20T07:48:08;13.50;99.90
27200;DHT22;14714;48.106;11.546;2023-03-20T07:50:35;13.20;99.90
27200;DHT22;14714;48.106;11.546;2023-03-20T07:53:01;13.00;99.90
27200;DHT22;14714;48.106;11.546;2023-03-20T07:55:28;12.60;99.90
27200;DHT22;14714;48.106;11.546;2023-03-20T07:57:55;12.30;99.90
27200;DHT22;14714;48.106;11.546;2023-03-20T08:00:22;12.10;99.90
27200;DHT22;14714;48.106;11.546;2023-03-20T08:02:48;11.90;99.90
27200;DHT22;14714;48.106;11.546;2023-03-20T08:05:15;11.80;99.90
27200;DHT22;14714;48.106;11.546;2023-03-20T08:07:43;11.70;99.90
27200;DHT22;14714;48.106;11.546;2023-03-20T08:10:11;11.70;99.90
27200;DHT22;14714;48.106;11.546;2023-03-20T08:12:38;11.60;99.90
27200;DHT22;14714;48.106;11.546;2023-03-20T08:15:04;11.70;99.90
27200;DHT22;14714;48.106;11.546;2023-03-20T08:17:32;11.70;99.90
27200;DHT22;14714;48.106;11.546;2023-03-20T08:19:58;11.80;99.90
27200;DHT22;14714;48.106;11.546;2023-03-20T08:22:26;11.80;99.90
27200;DHT22;14714;48.106;11.546;2023-03-20T08:24:52;11.90;99.90
27200;DHT22;14714;48.106;11.546;2023-03-20T08:27:19;11.90;99.90
27200;DHT22;14714;48.106;11.546;2023-03-20T08:29:46;11.90;99.90
27200;DHT22;14714;48.106;11.546;2023-03-20T08:32:12;12.00;99.90
27200;DHT22;14714;48.106;11.546;2023-03-20T08:34:39;11.90;99.90
27200;DHT22;14714;48.106;11.546;2023-03-20T08:37:06;11.90;99.90
27200;DHT22;14714;48.106;11.546;2023-03-20T08:39:33;11.80;99.90
27200;DHT22;14714;48.106;11.546;2023-03-20T08:42:01;11.80;99.90
27200;DHT22;14714;48.106;11.546;2023-03-20T08:44:27;12.00;99.90
27200;DHT22;14714;48.106;11.546;2023-03-20T08:46:54;12.20;99.90
27200;DHT22;14714;48.106;11.546;2023-03-20T08:49:22;12.50;99.90
27200;DHT22;14714;48.106;11.546;2023-03-20T08:51:48;12.90;99.90
27200;DHT22;14714;48.106;11.546;2023-03-20T08:54:15;13.20;99.90
27200;DHT22;14714;48.106;11.546;2023-03-20T08:56:44;13.50;99.90
27200;DHT22;14714;48.106;11.546;2023-03-20T08:59:11;13.70;99.90
27200;DHT22;14714;48.106;11.546;2023-03-20T09:01:38;13.90;99.90
27200;DHT22;14714;48.106;11.546;2023-03-20T09:04:15;14.20;99.90
27200;DHT22;14714;48.106;11.546;2023-03-20T09:06:42;14.40;99.90
27200;DHT22;14714;48.106;11.546;2023-03-20T09:09:08;14.40;99.90
27200;DHT22;14714;48.106;11.546;2023-03-20T09:11:35;14.30;99.90
27200;DHT22;14714;48.106;11.546;2023-03-20T09:14:02;14.10;99.90
27200;DHT22;14714;48.106;11.546;2023-03-20T09:16:29;13.80;99.90
27200;DHT22;14714;48.106;11.546;2023-03-20T09:18:56;13.70;99.90
27200;DHT22;14714;48.106;11.546;2023-03-20T09:21:22;13.60;99.90
27200;DHT22;14714;48.106;11.546;2023-03-20T09:23:49;13.50;99.90
27200;DHT22;14714;48.106;11.546;2023-03-20T09:26:16;13.40;99.90
27200;DHT22;14714;48.106;11.546;2023-03-20T09:28:42;13.30;99.90
27200;DHT22;14714;48.106;11.546;2023-03-20T09:31:09;13.30;99.90
27200;DHT22;14714;48.106;11.546;2023-03-20T09:33:37;13.30;99.90
27200;DHT22;14714;48.106;11.546;2023-03-20T09:36:04;13.40;99.90
27200;DHT22;14714;48.106;11.546;2023-03-20T09:38:31;13.40;99.90
27200;DHT22;14714;48.106;11.546;2023-03-20T09:40:58;13.40;99.90
27200;DHT22;14714;48.106;11.546;2023-03-20T09:53:55;14.00;99.90
27200;DHT22;14714;48.106;11.546;2023-03-20T09:56:27;14.10;99.90
27200;DHT22;14714;48.106;11.546;2023-03-20T09:58:58;14.00;99.90
27200;DHT22;14714;48.106;11.546;2023-03-20T10:01:28;14.00;99.90
27200;DHT22;14714;48.106;11.546;2023-03-20T10:03:57;14.10;99.90
27200;DHT22;14714;48.106;11.546;2023-03-20T10:06:24;14.10;99.90
27200;DHT22;14714;48.106;11.546;2023-03-20T10:08:51;13.90;99.90
27200;DHT22;14714;48.106;11.546;2023-03-20T10:22:35;13.40;99.90
27200;DHT22;14714;48.106;11.546;2023-03-20T10:24:51;13.40;99.90
27200;DHT22;14714;48.106;11.546;2023-03-20T10:27:33;13.50;99.90
27200;DHT22;14714;48.106;11.546;2023-03-20T10:32:51;13.90;99.90
27200;DHT22;14714;48.106;11.546;2023-03-20T10:35:47;14.00;99.90
27200;DHT22;14714;48.106;11.546;2023-03-20T10:38:18;14.10;99.90
27200;DHT22;14714;48.106;11.546;2023-03-20T10:40:49;14.10;99.90
27200;DHT22;14714;48.106;11.546;2023-03-20T10:43:20;14.20;99.90
27200;DHT22;14714;48.106;11.546;2023-03-20T10:45:51;14.80;99.90
27200;DHT22;14714;48.106;11.546;2023-03-20T10:48:20;15.70;99.90
27200;DHT22;14714;48.106;11.546;2023-03-20T10:50:56;17.00;99.90
27200;DHT22;14714;48.106;11.546;2023-03-20T10:55:51;18.50;93.60
27200;DHT22;14714;48.106;11.546;2023-03-20T10:58:22;18.70;93.00
27200;DHT22;14714;48.106;11.546;2023-03-20T11:00:49;18.90;91.20
27200;DHT22;14714;48.106;11.546;2023-03-20T11:03:23;18.90;87.70
27200;DHT22;14714;48.106;11.546;2023-03-20T11:05:52;18.90;88.10
27200;DHT22;14714;48.106;11.546;2023-03-20T11:08:40;18.90;84.10
27200;DHT22;14714;48.106;11.546;2023-03-20T11:11:08;18.90;82.10
27200;DHT22;14714;48.106;11.546;2023-03-20T11:13:40;18.80;83.80
27200;DHT22;14714;48.106;11.546;2023-03-20T11:16:08;18.80;82.30
27200;DHT22;14714;48.106;11.546;2023-03-20T11:18:36;19.00;80.10
27200;DHT22;14714;48.106;11.546;2023-03-20T11:21:03;18.90;80.60
27200;DHT22;14714;48.106;11.546;2023-03-20T11:23:33;18.50;78.30
27200;DHT22;14714;48.106;11.546;2023-03-20T11:26:01;18.10;78.50
27200;DHT22;14714;48.106;11.546;2023-03-20T11:31:03;17.10;82.40
27200;DHT22;14714;48.106;11.546;2023-03-20T11:33:32;16.70;84.40
27200;DHT22;14714;48.106;11.546;2023-03-20T11:36:01;16.30;85.10
27200;DHT22;14714;48.106;11.546;2023-03-20T11:38:35;16.10;86.30
27200;DHT22;14714;48.106;11.546;2023-03-20T11:42:19;16.30;86.80
27200;DHT22;14714;48.106;11.546;2023-03-20T11:44:18;16.40;87.50
27200;DHT22;14714;48.106;11.546;2023-03-20T11:46:46;16.50;85.60
27200;DHT22;14714;48.106;11.546;2023-03-20T11:49:20;16.40;86.60
27200;DHT22;14714;48.106;11.546;2023-03-20T11:51:50;16.40;87.30
27200;DHT22;14714;48.106;11.546;2023-03-20T11:54:21;16.30;87.90
27200;DHT22;14714;48.106;11.546;2023-03-20T11:56:53;16.30;86.80
27200;DHT22;14714;48.106;11.546;2023-03-20T11:59:20;16.20;86.90
27200;DHT22;14714;48.106;11.546;2023-03-20T12:01:48;16.20;88.20
27200;DHT22;14714;48.106;11.546;2023-03-20T12:04:17;16.20;88.40
27200;DHT22;14714;48.106;11.546;2023-03-20T12:06:45;16.20;87.50
27200;DHT22;14714;48.106;11.546;2023-03-20T12:12:02;16.20;84.30
27200;DHT22;14714;48.106;11.546;2023-03-20T12:17:18;16.00;86.20
27200;DHT22;14714;48.106;11.546;2023-03-20T12:19:47;16.00;85.70
27200;DHT22;14714;48.106;11.546;2023-03-20T12:22:34;15.90;88.90
27200;DHT22;14714;48.106;11.546;2023-03-20T12:27:31;16.00;88.50
27200;DHT22;14714;48.106;11.546;2023-03-20T12:30:05;16.10;87.10
27200;DHT22;14714;48.106;11.546;2023-03-20T12:32:40;16.20;87.40
27200;DHT22;14714;48.106;11.546;2023-03-20T12:35:28;16.20;86.30
27200;DHT22;14714;48.106;11.546;2023-03-20T12:37:55;16.00;85.90
27200;DHT22;14714;48.106;11.546;2023-03-20T12:40:44;15.70;86.00
27200;DHT22;14714;48.106;11.546;2023-03-20T12:45:39;15.10;87.60
27200;DHT22;14714;48.106;11.546;2023-03-20T12:49:11;14.80;88.90
27200;DHT22;14714;48.106;11.546;2023-03-20T12:56:27;14.30;91.10
27200;DHT22;14714;48.106;11.546;2023-03-20T13:01:52;14.10;91.70
27200;DHT22;14714;48.106;11.546;2023-03-20T13:07:05;14.10;92.90
27200;DHT22;14714;48.106;11.546;2023-03-20T13:12:16;14.10;92.70
27200;DHT22;14714;48.106;11.546;2023-03-20T13:14:51;14.10;92.50
27200;DHT22;14714;48.106;11.546;2023-03-20T13:20:27;14.00;93.20
27200;DHT22;14714;48.106;11.546;2023-03-20T13:33:25;14.60;92.20
27200;DHT22;14714;48.106;11.546;2023-03-20T13:38:29;14.90;91.20
27200;DHT22;14714;48.106;11.546;2023-03-20T13:41:02;15.00;91.80
27200;DHT22;14714;48.106;11.546;2023-03-20T13:43:40;15.20;91.20
27200;DHT22;14714;48.106;11.546;2023-03-20T13:46:09;15.30;90.40
27200;DHT22;14714;48.106;11.546;2023-03-20T13:48:38;15.30;89.50
27200;DHT22;14714;48.106;11.546;2023-03-20T13:51:17;15.30;89.40
27200;DHT22;14714;48.106;11.546;2023-03-20T14:04:26;14.50;90.80
27200;DHT22;14714;48.106;11.546;2023-03-20T14:06:54;14.50;91.60
27200;DHT22;14714;48.106;11.546;2023-03-20T14:11:52;14.60;91.30
27200;DHT22;14714;48.106;11.546;2023-03-20T14:14:26;14.70;91.20
27200;DHT22;14714;48.106;11.546;2023-03-20T14:17:16;14.80;91.10
27200;DHT22;14714;48.106;11.546;2023-03-20T14:19:41;14.80;90.30
27200;DHT22;14714;48.106;11.546;2023-03-20T14:22:13;14.80;90.70
27200;DHT22;14714;48.106;11.546;2023-03-20T14:24:40;14.80;89.60
27200;DHT22;14714;48.106;11.546;2023-03-20T14:27:14;14.80;90.30
27200;DHT22;14714;48.106;11.546;2023-03-20T14:29:42;14.80;90.30
27200;DHT22;14714;48.106;11.546;2023-03-20T14:34:43;14.80;89.30
27200;DHT22;14714;48.106;11.546;2023-03-20T14:39:53;14.80;89.00
27200;DHT22;14714;48.106;11.546;2023-03-20T15:01:01;14.50;90.00
27200;DHT22;14714;48.106;11.546;2023-03-20T15:03:29;14.40;90.10
27200;DHT22;14714;48.106;11.546;2023-03-20T15:05:56;14.40;90.20
27200;DHT22;14714;48.106;11.546;2023-03-20T15:08:27;14.30;90.70
27200;DHT22;14714;48.106;11.546;2023-03-20T15:10:55;14.40;90.60
27200;DHT22;14714;48.106;11.546;2023-03-20T15:13:22;14.40;90.00
27200;DHT22;14714;48.106;11.546;2023-03-20T15:16:03;14.40;90.20
27200;DHT22;14714;48.106;11.546;2023-03-20T15:18:36;14.50;90.00
27200;DHT22;14714;48.106;11.546;2023-03-20T15:21:08;14.50;88.90
27200;DHT22;14714;48.106;11.546;2023-03-20T15:23:39;14.40;89.30
27200;DHT22;14714;48.106;11.546;2023-03-20T15:26:06;14.40;90.60
27200;DHT22;14714;48.106;11.546;2023-03-20T15:28:33;14.40;89.80
27200;DHT22;14714;48.106;11.546;2023-03-20T15:31:03;14.30;89.70
27200;DHT22;14714;48.106;11.546;2023-03-20T15:33:32;14.20;90.50
27200;DHT22;14714;48.106;11.546;2023-03-20T15:36:09;14.10;90.80
27200;DHT22;14714;48.106;11.546;2023-03-20T15:38:36;14.10;90.40
27200;DHT22;14714;48.106;11.546;2023-03-20T15:41:04;14.10;90.70
27200;DHT22;14714;48.106;11.546;2023-03-20T15:43:31;14.00;90.80
27200;DHT22;14714;48.106;11.546;2023-03-20T15:46:00;14.00;90.90
27200;DHT22;14714;48.106;11.546;2023-03-20T15:48:47;13.90;90.80
27200;DHT22;14714;48.106;11.546;2023-03-20T15:51:14;13.80;90.90
27200;DHT22;14714;48.106;11.546;2023-03-20T15:53:41;13.70;91.00
27200;DHT22;14714;48.106;11.546;2023-03-20T15:56:11;13.60;90.80
27200;DHT22;14714;48.106;11.546;2023-03-20T15:58:46;13.50;91.50
27200;DHT22;14714;48.106;11.546;2023-03-20T16:01:16;13.50;91.80
27200;DHT22;14714;48.106;11.546;2023-03-20T16:03:44;13.40;91.70
27200;DHT22;14714;48.106;11.546;2023-03-20T16:06:11;13.40;91.80
27200;DHT22;14714;48.106;11.546;2023-03-20T16:08:40;13.30;91.70
27200;DHT22;14714;48.106;11.546;2023-03-20T16:11:16;13.20;91.20
27200;DHT22;14714;48.106;11.546;2023-03-20T16:13:43;13.10;91.60
27200;DHT22;14714;48.106;11.546;2023-03-20T16:16:17;13.00;91.80
27200;DHT22;14714;48.106;11.546;2023-03-20T16:18:45;13.00;92.00
27200;DHT22;14714;48.106;11.546;2023-03-20T16:21:29;12.90;92.50
27200;DHT22;14714;48.106;11.546;2023-03-20T16:23:57;12.80;92.20
27200;DHT22;14714;48.106;11.546;2023-03-20T16:26:25;12.70;92.40
27200;DHT22;14714;48.106;11.546;2023-03-20T16:28:57;12.60;92.40
27200;DHT22;14714;48.106;11.546;2023-03-20T16:31:34;12.50;92.80
27200;DHT22;14714;48.106;11.546;2023-03-20T16:34:05;12.40;93.10
27200;DHT22;14714;48.106;11.546;2023-03-20T16:36:34;12.30;93.40
27200;DHT22;14714;48.106;11.546;2023-03-20T16:41:34;12.10;93.90
27200;DHT22;14714;48.106;11.546;2023-03-20T16:46:52;11.90;94.90
27200;DHT22;14714;48.106;11.546;2023-03-20T16:52:10;11.70;95.10
27200;DHT22;14714;48.106;11.546;2023-03-20T16:54:37;11.70;95.50
27200;DHT22;14714;48.106;11.546;2023-03-20T16:57:07;11.60;95.70
27200;DHT22;14714;48.106;11.546;2023-03-20T16:59:37;11.50;95.80
27200;DHT22;14714;48.106;11.546;2023-03-20T17:02:09;11.50;96.10
27200;DHT22;14714;48.106;11.546;2023-03-20T17:04:38;11.40;96.20
27200;DHT22;14714;48.106;11.546;2023-03-20T17:07:07;11.30;96.30
27200;DHT22;14714;48.106;11.546;2023-03-20T17:09:35;11.20;96.80
27200;DHT22;14714;48.106;11.546;2023-03-20T17:12:16;11.10;97.20
27200;DHT22;14714;48.106;11.546;2023-03-20T17:14:43;11.10;97.30
27200;DHT22;14714;48.106;11.546;2023-03-20T17:17:11;11.00;97.30
27200;DHT22;14714;48.106;11.546;2023-03-20T17:19:38;10.90;97.50
27200;DHT22;14714;48.106;11.546;2023-03-20T17:22:12;10.90;97.50
27200;DHT22;14714;48.106;11.546;2023-03-20T17:24:39;10.80;97.80
27200;DHT22;14714;48.106;11.546;2023-03-20T17:27:08;10.70;98.30
27200;DHT22;14714;48.106;11.546;2023-03-20T17:29:36;10.70;98.40
27200;DHT22;14714;48.106;11.546;2023-03-20T17:32:17;10.60;98.60
27200;DHT22;14714;48.106;11.546;2023-03-20T17:34:44;10.60;98.70
27200;DHT22;14714;48.106;11.546;2023-03-20T17:37:12;10.50;99.00
27200;DHT22;14714;48.106;11.546;2023-03-20T17:39:39;10.40;99.30
27200;DHT22;14714;48.106;11.546;2023-03-20T17:42:15;10.40;99.40
27200;DHT22;14714;48.106;11.546;2023-03-20T17:44:44;10.30;99.70
27200;DHT22;14714;48.106;11.546;2023-03-20T17:47:14;10.20;99.90
27200;DHT22;14714;48.106;11.546;2023-03-20T17:49:42;10.20;99.90
27200;DHT22;14714;48.106;11.546;2023-03-20T17:52:12;10.10;99.90
27200;DHT22;14714;48.106;11.546;2023-03-20T17:54:43;10.00;99.90
27200;DHT22;14714;48.106;11.546;2023-03-20T17:57:21;10.00;99.90
27200;DHT22;14714;48.106;11.546;2023-03-20T17:59:49;9.90;99.90
27200;DHT22;14714;48.106;11.546;2023-03-20T18:02:16;9.90;99.90
27200;DHT22;14714;48.106;11.546;2023-03-20T18:04:44;9.80;99.90
27200;DHT22;14714;48.106;11.546;2023-03-20T18:07:11;9.80;99.90
27200;DHT22;14714;48.106;11.546;2023-03-20T18:09:38;9.70;99.90
27200;DHT22;14714;48.106;11.546;2023-03-20T18:12:10;9.70;99.90
27200;DHT22;14714;48.106;11.546;2023-03-20T18:14:40;9.60;99.90
27200;DHT22;14714;48.106;11.546;2023-03-20T18:17:07;9.50;99.90
27200;DHT22;14714;48.106;11.546;2023-03-20T18:19:36;9.50;99.90
27200;DHT22;14714;48.106;11.546;2023-03-20T18:22:03;9.40;99.90
27200;DHT22;14714;48.106;11.546;2023-03-20T18:24:30;9.30;99.90
27200;DHT22;14714;48.106;11.546;2023-03-20T18:26:56;9.30;99.90